COYOTE (LAKE MENDOCINO) (COY)

Elevation: 720' · RUSSIAN R basin · Operator: US Army Corps of Engineers

Provisional data, subject to change.
Query executed Sunday at 22:02:05   clock

Select a sensor type for a plot of data.
Note: Reservoir Flows are daily averages.

Earlier

Date RES ELE    STORAGE    RES CHG    TOC STO    ABV TOC    OUTFLOW    INFLOW    PPT INC    TEMP MN    TEMP MX    EVP PAN   
 FEET   AF   AF   AF   AF   CFS   CFS   INCHES   DEG F   DEG F   INCHES  
12/26/2014 729.55 55587 -- 68410 -12823 25 114 0.00 -1 15 0.05
12/27/2014 729.66 55758 -- 68410 -- 25 113 0.00 -1 15 0.04
12/28/2014 729.76 55914 -- 68410 -12496 25 106 0.00 2 17 0.05
12/29/2014 729.84 56039 125 68410 -12371 24 90 0.01 1 13 0.05
12/30/2014 729.90 56132 93 68410 -12278 26 79 0.00 -0 13 0.09
12/31/2014 729.97 56242 110 -- -- -- -- -- -- -- --
01/01/2015 730.01 56304 62 68410 -12106 31 65 0.00 -3 16 0.05
01/02/2015 730.06 56383 79 68410 -12027 32 74 0.00 -2 14 0.04
01/03/2015 730.11 56461 78 68410 -11949 30 72 0.00 -1 15 0.04
01/04/2015 730.15 56523 62 68410 -11887 31 65 0.00 2 18 0.05
01/05/2015 730.20 56602 79 68410 -11808 29 72 0.00 1 19 0.05
01/06/2015 730.25 56680 78 68410 -11730 27 70 0.00 3 23 0.07
01/07/2015 730.30 56758 78 68410 -11652 27 70 0.00 2 24 0.07
01/08/2015 730.35 56837 79 68410 -11573 27 69 0.00 3 16 0.04
01/09/2015 730.39 56899 62 68410 -11511 27 62 0.00 4 21 0.05
01/10/2015 730.42 56946 47 68410 -11464 27 53 0.00 5 14 0.03
01/11/2015 730.47 57025 79 68410 -11385 27 70 0.00 2 18 0.05
01/12/2015 730.50 57072 47 68410 -11338 27 54 0.00 6 20 0.05
01/13/2015 730.53 57119 47 68410 -11291 27 54 0.00 2 21 0.06
01/14/2015 730.57 57182 63 68410 -11228 27 62 0.00 0 17 0.06
01/15/2015 730.61 57245 63 68410 -11165 27 61 0.00 2 12 0.03
01/16/2015 730.68 57355 110 68410 -11055 27 84 0.37 9 12 0.02
01/17/2015 730.73 57433 78 68410 -10977 27 69 0.06 11 16 0.04
01/18/2015 730.79 57528 95 68410 -10882 27 77 0.07 12 16 0.04
01/19/2015 730.84 57607 79 68410 -10803 27 70 0.00 6 17 0.06
01/20/2015 730.88 57670 63 68410 -10740 27 62 0.00 2 17 0.06
01/21/2015 730.91 57717 47 68410 -10693 27 55 0.00 1 21 0.07
01/22/2015 730.94 57764 47 68410 -10646 27 55 0.00 5 22 0.08
01/23/2015 730.98 57827 63 68410 -10583 27 63 0.00 4 25 0.08
01/24/2015 731.02 57890 63 68410 -10520 -- -- -- -- -- --
01/25/2015 -- -- -- -- -- -- -- -- -- -- --

Later | Latest

Warning! This data is preliminary and subject to revision.

Show COY Map | Plot COY Data | 1 Month COY Data | Real-Time COY Data | COY Info